createdAt,value
2023-01-01T00:02:02.734Z,27.43
2023-01-01T00:04:32.670Z,18.47
2023-01-01T00:07:01.294Z,17.97
2023-01-01T00:09:47.577Z,19.47
2023-01-01T00:12:17.942Z,22.50
2023-01-01T00:14:46.487Z,26.10
2023-01-01T00:17:14.953Z,33.23
2023-01-01T00:19:43.559Z,86.53
2023-01-01T00:22:52.171Z,94.27
2023-01-01T00:25:02.205Z,66.10
2023-01-01T00:27:32.522Z,53.97
2023-01-01T00:30:00.983Z,60.10
2023-01-01T00:32:29.549Z,61.20
2023-01-01T00:34:58.007Z,56.93
2023-01-01T00:37:26.468Z,48.47
2023-01-01T00:39:55.177Z,47.60
2023-01-01T00:42:24.890Z,51.47
2023-01-01T00:44:54.675Z,52.63
2023-01-01T00:47:23.481Z,53.13
2023-01-01T00:49:51.982Z,54.63
2023-01-01T00:52:20.436Z,57.23
2023-01-01T00:54:51.007Z,50.67
2023-01-01T00:57:19.519Z,56.10
2023-01-01T00:59:48.083Z,51.07
2023-01-01T01:02:18.089Z,50.50
2023-01-01T01:04:46.724Z,51.40
2023-01-01T01:07:15.204Z,48.60
2023-01-01T01:09:43.785Z,46.77
2023-01-01T01:12:18.160Z,42.70
2023-01-01T01:14:47.477Z,41.40
2023-01-01T01:17:16.123Z,47.23
2023-01-01T01:19:45.903Z,47.00
2023-01-01T01:22:14.531Z,41.77
2023-01-01T01:24:43.023Z,48.37
2023-01-01T01:27:11.583Z,42.60
2023-01-01T01:29:40.084Z,39.77
2023-01-01T01:32:08.612Z,37.77
2023-01-01T01:34:37.055Z,39.97
2023-01-01T01:37:07.362Z,38.97
2023-01-01T01:39:36.873Z,41.60
2023-01-01T01:42:07.141Z,41.67
2023-01-01T01:45:00.662Z,39.23
2023-01-01T01:47:32.326Z,37.77
2023-01-01T01:50:05.833Z,36.67
2023-01-01T01:52:36.475Z,39.33
2023-01-01T01:55:06.118Z,40.40
2023-01-01T01:57:35.046Z,41.17
2023-01-01T02:00:10.702Z,39.73
2023-01-01T02:02:42.457Z,42.17
2023-01-01T02:05:11.683Z,37.53
2023-01-01T02:07:42.028Z,41.93
2023-01-01T02:10:11.089Z,41.30
2023-01-01T02:12:39.778Z,36.20
2023-01-01T02:15:09.586Z,37.50
2023-01-01T02:17:42.027Z,37.20
2023-01-01T02:20:18.377Z,38.47
2023-01-01T02:22:57.921Z,45.00
2023-01-01T02:25:34.851Z,40.13
2023-01-01T02:28:08.113Z,43.43
2023-01-01T02:30:38.759Z,41.27
2023-01-01T02:33:12.129Z,36.97
2023-01-01T02:35:42.667Z,42.90
2023-01-01T02:38:13.279Z,42.00
2023-01-01T02:40:44.478Z,42.77
2023-01-01T02:43:12.989Z,43.43
2023-01-01T02:45:42.874Z,43.07
2023-01-01T02:48:26.142Z,39.33
2023-01-01T02:50:54.915Z,39.10
2023-01-01T02:53:28.335Z,40.67
2023-01-01T02:56:02.442Z,36.93
2023-01-01T02:58:52.379Z,37.07
2023-01-01T03:01:26.367Z,40.47
2023-01-01T03:03:58.855Z,34.93
2023-01-01T03:06:29.457Z,35.43
2023-01-01T03:09:05.943Z,35.50
2023-01-01T03:11:39.684Z,36.00
2023-01-01T03:14:10.787Z,36.47
2023-01-01T03:16:43.117Z,37.67
2023-01-01T03:19:15.957Z,33.17
2023-01-01T03:21:46.608Z,32.90
2023-01-01T03:24:18.155Z,33.93
2023-01-01T03:26:48.835Z,34.10
2023-01-01T03:29:18.023Z,35.70
2023-01-01T03:31:50.335Z,30.43
2023-01-01T03:34:20.784Z,29.83
2023-01-01T03:36:51.379Z,32.07
2023-01-01T03:39:21.201Z,30.37
2023-01-01T03:41:52.108Z,29.27
2023-01-01T03:44:23.763Z,31.20
2023-01-01T03:46:53.748Z,28.90
2023-01-01T03:49:22.638Z,26.60
2023-01-01T03:52:09.322Z,27.37
2023-01-01T03:54:40.902Z,25.17
2023-01-01T03:57:12.461Z,25.50
2023-01-01T03:59:42.836Z,25.80
2023-01-01T04:02:13.320Z,24.93
2023-01-01T04:04:42.478Z,25.53
2023-01-01T04:07:15.251Z,21.20
2023-01-01T04:09:47.170Z,23.20
2023-01-01T04:12:17.280Z,22.13
2023-01-01T04:14:46.075Z,23.07
2023-01-01T04:17:15.955Z,20.70
2023-01-01T04:19:48.789Z,22.27
2023-01-01T04:22:23.655Z,20.40
2023-01-01T04:24:52.363Z,20.87
2023-01-01T04:27:21.895Z,20.73
2023-01-01T04:29:50.432Z,21.07
2023-01-01T04:32:20.485Z,21.40
2023-01-01T04:34:49.311Z,22.60
2023-01-01T04:37:17.961Z,21.50
2023-01-01T04:39:46.613Z,19.60
2023-01-01T04:42:15.431Z,18.03
2023-01-01T04:44:44.024Z,20.03
2023-01-01T04:47:12.690Z,19.43
2023-01-01T04:49:42.468Z,17.77
2023-01-01T04:52:11.209Z,18.87
2023-01-01T04:54:39.639Z,17.83
2023-01-01T04:57:08.087Z,17.03
2023-01-01T04:59:36.567Z,17.73
2023-01-01T05:02:05.098Z,16.50
2023-01-01T05:04:33.648Z,14.27
2023-01-01T05:07:03.722Z,13.47
2023-01-01T05:09:32.236Z,13.60
2023-01-01T05:12:00.673Z,13.97
2023-01-01T05:14:29.108Z,11.10
2023-01-01T05:16:57.659Z,12.37
2023-01-01T05:19:26.064Z,11.80
2023-01-01T05:21:54.646Z,11.43
2023-01-01T05:24:24.519Z,12.60
2023-01-01T05:26:53.273Z,11.80
2023-01-01T05:29:24.251Z,12.10
2023-01-01T05:31:53.258Z,9.70
2023-01-01T05:34:21.758Z,10.50
2023-01-01T05:36:50.236Z,10.40
2023-01-01T05:39:18.628Z,10.30
2023-01-01T05:41:48.419Z,11.27
2023-01-01T05:44:17.385Z,10.97
2023-01-01T05:46:45.884Z,10.73
2023-01-01T05:49:14.627Z,9.93
2023-01-01T05:51:43.107Z,11.73
2023-01-01T05:56:38.898Z,8.37
2023-01-01T05:59:09.070Z,8.67
2023-01-01T06:01:45.109Z,8.57
2023-01-01T06:04:14.609Z,9.00
2023-01-01T06:06:43.312Z,8.50
2023-01-01T06:09:12.304Z,9.00
2023-01-01T06:11:40.731Z,8.17
2023-01-01T06:14:10.764Z,7.93
2023-01-01T06:16:39.564Z,7.40
2023-01-01T06:19:08.112Z,7.33
2023-01-01T06:21:36.563Z,9.07
2023-01-01T06:24:05.196Z,9.57
2023-01-01T06:26:34.521Z,7.80
2023-01-01T06:29:03.808Z,6.27
2023-01-01T06:31:40.413Z,7.10
2023-01-01T06:34:09.186Z,5.90
2023-01-01T06:36:37.730Z,5.70
2023-01-01T06:39:06.477Z,6.57
2023-01-01T06:41:34.972Z,5.20
2023-01-01T06:44:03.388Z,5.73
2023-01-01T06:46:32.705Z,5.23
2023-01-01T06:49:04.690Z,4.50
2023-01-01T06:51:34.328Z,5.60
2023-01-01T06:54:03.648Z,5.10
2023-01-01T06:56:32.702Z,4.83
2023-01-01T06:59:01.474Z,5.23
2023-01-01T07:01:30.652Z,4.50
2023-01-01T07:04:00.315Z,4.63
2023-01-01T07:06:30.826Z,4.57
2023-01-01T07:08:59.302Z,4.57
2023-01-01T07:11:28.171Z,4.80
2023-01-01T07:13:56.761Z,4.50
2023-01-01T07:16:25.418Z,5.10
2023-01-01T07:18:54.228Z,4.53
2023-01-01T07:21:29.657Z,5.17
2023-01-01T07:24:00.303Z,5.03
2023-01-01T07:26:29.343Z,4.60
2023-01-01T07:29:04.537Z,5.40
2023-01-01T07:31:35.296Z,5.37
2023-01-01T07:34:03.827Z,4.57
2023-01-01T07:36:32.282Z,4.60
2023-01-01T07:39:02.391Z,5.13
2023-01-01T07:41:30.846Z,5.00
2023-01-01T07:44:00.634Z,5.27
2023-01-01T07:46:29.584Z,5.13
2023-01-01T07:48:59.831Z,5.50
2023-01-01T07:51:28.779Z,5.30
2023-01-01T07:54:02.166Z,4.83
2023-01-01T07:56:36.911Z,4.40
2023-01-01T07:59:05.652Z,4.87
2023-01-01T08:01:36.826Z,4.63
2023-01-01T08:04:05.362Z,4.93
2023-01-01T08:06:34.274Z,4.50
2023-01-01T08:09:03.061Z,4.63
2023-01-01T08:11:31.530Z,5.00
2023-01-01T08:14:02.112Z,5.23
2023-01-01T08:16:30.575Z,5.17
2023-01-01T08:18:59.091Z,5.40
2023-01-01T08:21:27.654Z,5.53
2023-01-01T08:23:56.266Z,4.90
2023-01-01T08:26:30.013Z,4.97
2023-01-01T08:28:58.644Z,4.87
2023-01-01T08:31:28.737Z,4.37
2023-01-01T08:33:57.297Z,4.70
2023-01-01T08:36:27.169Z,4.50
2023-01-01T08:38:55.858Z,4.57
2023-01-01T08:41:24.499Z,4.87
2023-01-01T08:43:53.024Z,4.70
2023-01-01T08:46:21.512Z,4.50
2023-01-01T08:48:51.353Z,4.70
2023-01-01T08:51:20.038Z,4.63
2023-01-01T08:53:51.152Z,4.80
2023-01-01T08:56:20.617Z,5.10
2023-01-01T08:58:49.267Z,4.33
2023-01-01T09:01:18.151Z,5.20
2023-01-01T09:03:46.638Z,5.30
2023-01-01T09:06:16.539Z,5.00
2023-01-01T09:08:45.009Z,4.77
2023-01-01T09:11:20.223Z,5.00
2023-01-01T09:13:48.665Z,4.90
2023-01-01T09:19:48.226Z,4.37
2023-01-01T09:22:18.445Z,3.83
2023-01-01T09:24:47.263Z,3.20
2023-01-01T09:27:15.758Z,2.70
2023-01-01T09:29:44.264Z,2.60
2023-01-01T09:32:12.701Z,2.40
2023-01-01T09:34:41.273Z,2.10
2023-01-01T09:37:09.922Z,2.30
2023-01-01T09:39:40.558Z,2.40
2023-01-01T09:42:20.906Z,2.03
2023-01-01T09:48:46.889Z,2.20
2023-01-01T09:51:17.685Z,1.90
2023-01-01T09:53:50.208Z,2.20
2023-01-01T09:56:22.459Z,1.93
2023-01-01T09:58:50.840Z,2.10
2023-01-01T10:01:35.680Z,2.20
2023-01-01T10:04:09.969Z,2.20
2023-01-01T10:06:43.383Z,1.90
2023-01-01T10:09:13.882Z,1.80
2023-01-01T10:11:47.637Z,1.80
2023-01-01T10:14:19.356Z,2.13
2023-01-01T10:16:50.923Z,1.90
2023-01-01T10:19:24.410Z,1.90
2023-01-01T10:21:53.517Z,2.90
2023-01-01T10:24:33.001Z,2.80
2023-01-01T10:27:04.028Z,2.43
2023-01-01T10:29:37.139Z,2.10
2023-01-01T10:32:08.102Z,2.27
2023-01-01T10:34:36.521Z,3.17
2023-01-01T10:37:05.778Z,2.60
2023-01-01T10:39:34.179Z,2.47
2023-01-01T10:42:04.776Z,2.30
2023-01-01T10:44:34.288Z,2.30
2023-01-01T10:47:06.457Z,2.40
2023-01-01T10:49:34.830Z,2.00
2023-01-01T10:52:03.412Z,2.17
2023-01-01T10:54:34.931Z,2.40
2023-01-01T10:57:15.128Z,2.17
2023-01-01T10:59:49.863Z,2.30
2023-01-01T11:02:22.055Z,2.17
2023-01-01T11:04:51.604Z,2.43
2023-01-01T11:07:22.429Z,2.40
2023-01-01T11:10:03.093Z,2.20
2023-01-01T11:15:28.204Z,2.47
2023-01-01T11:18:04.308Z,2.37
2023-01-01T11:20:33.190Z,2.30
2023-01-01T11:23:18.900Z,2.70
2023-01-01T11:25:58.566Z,2.20
2023-01-01T11:28:31.440Z,2.00
2023-01-01T11:31:01.939Z,1.87
2023-01-01T11:33:32.017Z,2.00
2023-01-01T11:36:00.618Z,2.00
2023-01-01T11:38:30.398Z,1.77
2023-01-01T11:41:04.339Z,1.90
2023-01-01T11:43:36.933Z,1.90
2023-01-01T11:46:08.223Z,1.73
2023-01-01T11:48:36.839Z,1.95
2023-01-01T11:51:07.714Z,1.60
2023-01-01T11:53:40.488Z,1.60
2023-01-01T11:56:14.085Z,1.20
2023-01-01T11:58:48.228Z,1.53
2023-01-01T12:01:21.694Z,1.50
2023-01-01T12:03:51.564Z,1.30
2023-01-01T12:06:23.040Z,1.70
2023-01-01T12:08:54.499Z,1.33
2023-01-01T12:11:24.304Z,1.60
2023-01-01T12:13:57.531Z,1.70
2023-01-01T12:16:28.788Z,1.60
2023-01-01T12:19:02.475Z,1.40
2023-01-01T12:21:32.803Z,14.67
2023-01-01T12:24:01.341Z,3.47
2023-01-01T12:26:35.108Z,2.73
2023-01-01T12:29:12.823Z,2.77
2023-01-01T12:31:46.867Z,12.03
2023-01-01T12:34:19.112Z,5.03
2023-01-01T12:36:49.685Z,3.70
2023-01-01T12:39:36.403Z,1.50
2023-01-01T12:42:06.724Z,2.00
2023-01-01T12:44:40.807Z,1.55
2023-01-01T12:47:13.491Z,9.63
2023-01-01T12:49:50.629Z,4.10
2023-01-01T12:52:23.014Z,8.17
2023-01-01T12:55:10.767Z,12.17
2023-01-01T12:57:41.999Z,6.23
2023-01-01T13:00:16.387Z,2.80
2023-01-01T13:02:49.621Z,2.03
2023-01-01T13:05:20.772Z,2.37
2023-01-01T13:07:52.058Z,2.20
2023-01-01T13:10:24.722Z,1.80
2023-01-01T13:12:54.810Z,1.63
2023-01-01T13:15:44.625Z,1.80
2023-01-01T13:18:24.351Z,1.73
2023-01-01T13:20:58.023Z,1.60
2023-01-01T13:23:44.101Z,1.40
2023-01-01T13:26:31.215Z,1.50
2023-01-01T13:33:02.783Z,1.80
2023-01-01T13:35:32.526Z,1.58
2023-01-01T13:38:00.911Z,1.50
2023-01-01T13:40:34.170Z,1.60
2023-01-01T13:43:17.853Z,1.47
2023-01-01T13:48:50.960Z,1.87
2023-01-01T13:52:04.123Z,1.52
2023-01-01T13:54:54.597Z,1.60
2023-01-01T13:57:34.445Z,1.50
2023-01-01T14:00:07.559Z,1.42
2023-01-01T14:02:44.532Z,1.50
2023-01-01T14:05:16.530Z,1.73
2023-01-01T14:07:52.406Z,1.80
2023-01-01T14:10:23.731Z,1.98
2023-01-01T14:12:53.366Z,2.50
2023-01-01T14:15:25.985Z,2.05
2023-01-01T14:17:56.375Z,2.00
2023-01-01T14:20:25.482Z,1.77
2023-01-01T14:22:55.483Z,1.98
2023-01-01T14:25:28.339Z,1.60
2023-01-01T14:27:58.310Z,2.00
2023-01-01T14:30:27.212Z,2.00
2023-01-01T14:32:59.217Z,1.60
2023-01-01T14:39:28.221Z,1.50
2023-01-01T14:42:00.034Z,1.63
2023-01-01T14:44:30.618Z,1.53
2023-01-01T14:46:59.717Z,2.10
2023-01-01T14:49:31.510Z,2.00
2023-01-01T14:52:04.193Z,1.90
2023-01-01T14:54:35.116Z,2.10
2023-01-01T14:57:03.762Z,1.80
2023-01-01T14:59:32.925Z,1.90
2023-01-01T15:02:02.733Z,2.00
2023-01-01T15:04:31.736Z,1.57
2023-01-01T15:07:01.396Z,1.60
2023-01-01T15:09:30.388Z,1.63
2023-01-01T15:12:00.827Z,1.93
2023-01-01T15:14:30.954Z,1.83
2023-01-01T15:17:03.288Z,1.70
2023-01-01T15:19:32.071Z,1.70
2023-01-01T15:22:01.122Z,1.70
2023-01-01T15:24:30.609Z,1.63
2023-01-01T15:27:01.021Z,2.07
2023-01-01T15:29:31.033Z,1.90
2023-01-01T15:32:00.655Z,1.63
2023-01-01T15:34:31.164Z,2.23
2023-01-01T15:37:08.061Z,2.10
2023-01-01T15:39:46.476Z,2.47
2023-01-01T15:42:31.843Z,2.50
2023-01-01T15:45:09.694Z,2.87
2023-01-01T15:47:39.997Z,2.53
2023-01-01T15:50:09.757Z,2.30
2023-01-01T15:52:38.452Z,2.67
2023-01-01T15:55:07.411Z,2.37
2023-01-01T15:57:37.287Z,2.40
2023-01-01T16:00:06.404Z,2.57
2023-01-01T16:02:44.196Z,2.50
2023-01-01T16:05:15.912Z,2.37
2023-01-01T16:07:44.392Z,2.33
2023-01-01T16:10:15.802Z,2.00
2023-01-01T16:12:45.687Z,2.10
2023-01-01T16:15:16.669Z,2.00
2023-01-01T16:18:04.429Z,2.10
2023-01-01T16:20:33.058Z,2.13
2023-01-01T16:23:01.566Z,2.30
2023-01-01T16:25:30.139Z,2.20
2023-01-01T16:27:59.924Z,2.30
2023-01-01T16:30:28.476Z,2.27
2023-01-01T16:32:57.057Z,2.57
2023-01-01T16:35:25.505Z,2.40
2023-01-01T16:37:55.000Z,2.20
2023-01-01T16:40:23.760Z,2.80
2023-01-01T16:42:52.265Z,2.10
2023-01-01T16:45:22.234Z,2.30
2023-01-01T16:47:50.689Z,2.60
2023-01-01T16:50:19.569Z,2.83
2023-01-01T16:52:48.091Z,2.67
2023-01-01T16:55:16.732Z,2.70
2023-01-01T16:57:45.216Z,2.70
2023-01-01T17:00:15.380Z,2.40
2023-01-01T17:02:46.739Z,2.93
2023-01-01T17:05:15.582Z,2.90
2023-01-01T17:07:44.059Z,3.23
2023-01-01T17:10:12.502Z,3.30
2023-01-01T17:12:41.053Z,3.17
2023-01-01T17:15:09.990Z,3.30
2023-01-01T17:17:38.457Z,2.90
2023-01-01T17:20:08.629Z,3.63
2023-01-01T17:22:38.068Z,3.60
2023-01-01T17:25:08.768Z,3.67
2023-01-01T17:27:38.398Z,3.27
2023-01-01T17:30:07.511Z,3.57
2023-01-01T17:32:35.999Z,3.20
2023-01-01T17:35:04.863Z,4.00
2023-01-01T17:37:35.789Z,4.10
2023-01-01T17:40:04.501Z,3.80
2023-01-01T17:42:32.993Z,4.47
2023-01-01T17:45:01.451Z,4.80
2023-01-01T17:47:33.301Z,5.10
2023-01-01T17:50:02.018Z,4.93
2023-01-01T17:52:30.535Z,5.07
2023-01-01T17:55:00.452Z,4.83
2023-01-01T17:57:29.047Z,5.00
2023-01-01T17:59:59.471Z,7.23
2023-01-01T18:02:28.605Z,6.07
2023-01-01T18:04:58.580Z,6.43
2023-01-01T18:07:29.400Z,6.90
2023-01-01T18:09:59.032Z,7.67
2023-01-01T18:12:29.509Z,6.60
2023-01-01T18:14:58.110Z,6.40
2023-01-01T18:17:26.909Z,6.20
2023-01-01T18:19:55.861Z,6.50
2023-01-01T18:22:24.956Z,6.67
2023-01-01T18:24:53.846Z,6.63
2023-01-01T18:27:24.074Z,6.10
2023-01-01T18:29:54.727Z,6.83
2023-01-01T18:32:23.781Z,6.57
2023-01-01T18:34:52.405Z,6.03
2023-01-01T18:37:22.473Z,9.87
2023-01-01T18:39:51.863Z,12.90
2023-01-01T18:42:28.253Z,10.10
2023-01-01T18:45:09.453Z,6.43
2023-01-01T18:47:40.367Z,9.10
2023-01-01T18:50:16.552Z,7.87
2023-01-01T18:52:45.677Z,8.50
2023-01-01T18:55:18.207Z,7.53
2023-01-01T18:57:49.645Z,7.13
2023-01-01T19:00:22.630Z,7.13
2023-01-01T19:02:59.022Z,8.10
2023-01-01T19:05:28.917Z,6.73
2023-01-01T19:07:59.362Z,7.07
2023-01-01T19:10:32.299Z,7.13
2023-01-01T19:13:01.677Z,6.77
2023-01-01T19:15:32.453Z,7.37
2023-01-01T19:18:01.268Z,7.13
2023-01-01T19:20:30.074Z,6.83
2023-01-01T19:22:59.530Z,7.40
2023-01-01T19:25:36.627Z,6.93
2023-01-01T19:28:22.911Z,7.50
2023-01-01T19:30:53.991Z,7.50
2023-01-01T19:33:22.651Z,8.10
2023-01-01T19:35:51.880Z,7.30
2023-01-01T19:38:20.979Z,7.50
2023-01-01T19:40:49.858Z,6.93
2023-01-01T19:43:18.546Z,6.93
2023-01-01T19:45:47.346Z,6.70
2023-01-01T19:48:18.510Z,6.63
2023-01-01T19:50:49.097Z,6.90
2023-01-01T19:53:19.845Z,6.77
2023-01-01T19:55:48.932Z,6.87
2023-01-01T19:58:20.041Z,6.50
2023-01-01T20:00:49.324Z,6.80
2023-01-01T20:03:52.101Z,7.27
2023-01-01T20:06:09.999Z,6.37
2023-01-01T20:08:39.724Z,7.73
2023-01-01T20:11:08.720Z,8.07
2023-01-01T20:13:38.131Z,7.73
2023-01-01T20:16:07.560Z,7.80
2023-01-01T20:18:38.701Z,7.00
2023-01-01T20:21:27.052Z,7.17
2023-01-01T20:23:56.036Z,7.70
2023-01-01T20:26:26.594Z,8.40
2023-01-01T20:29:14.506Z,8.03
2023-01-01T20:31:44.159Z,8.47
2023-01-01T20:34:14.131Z,8.63
2023-01-01T20:37:02.598Z,8.03
2023-01-01T20:39:32.674Z,8.47
2023-01-01T20:42:01.486Z,8.17
2023-01-01T20:44:30.213Z,9.00
2023-01-01T20:47:00.128Z,8.57
2023-01-01T20:49:30.057Z,8.47
2023-01-01T20:51:58.953Z,7.93
2023-01-01T20:54:27.879Z,7.50
2023-01-01T20:56:56.521Z,7.77
2023-01-01T20:59:35.472Z,6.10
2023-01-01T21:02:05.265Z,6.83
2023-01-01T21:04:39.064Z,6.67
2023-01-01T21:07:09.207Z,6.60
2023-01-01T21:09:38.107Z,8.00
2023-01-01T21:12:07.613Z,7.33
2023-01-01T21:14:36.520Z,6.90
2023-01-01T21:17:09.619Z,7.00
2023-01-01T21:19:41.992Z,6.77
2023-01-01T21:22:14.299Z,7.10
2023-01-01T21:24:42.771Z,6.90
2023-01-01T21:27:13.846Z,7.60
2023-01-01T21:29:43.754Z,8.00
2023-01-01T21:32:15.918Z,7.93
2023-01-01T21:34:46.126Z,8.90
2023-01-01T21:37:38.315Z,7.63
2023-01-01T21:40:25.871Z,7.30
2023-01-01T21:42:55.877Z,7.03
2023-01-01T21:45:27.333Z,7.03
2023-01-01T21:47:55.856Z,7.20
2023-01-01T21:50:26.858Z,6.57
2023-01-01T21:52:58.859Z,6.13
2023-01-01T21:55:49.136Z,6.80
2023-01-01T21:58:36.519Z,6.47
2023-01-01T22:01:08.663Z,6.80
2023-01-01T22:03:37.700Z,6.33
2023-01-01T22:06:14.597Z,6.53
2023-01-01T22:08:44.631Z,6.33
2023-01-01T22:11:19.947Z,6.43
2023-01-01T22:13:48.396Z,6.47
2023-01-01T22:16:18.192Z,6.13
2023-01-01T22:18:46.719Z,6.03
2023-01-01T22:21:18.924Z,6.43
2023-01-01T22:23:47.747Z,6.80
2023-01-01T22:26:19.271Z,6.63
2023-01-01T22:28:48.936Z,6.67
2023-01-01T22:31:20.475Z,6.13
2023-01-01T22:33:49.854Z,6.50
2023-01-01T22:36:22.092Z,7.40
2023-01-01T22:38:50.761Z,6.90
2023-01-01T22:41:19.331Z,6.67
2023-01-01T22:43:48.599Z,6.80
2023-01-01T22:46:19.115Z,6.60
2023-01-01T22:48:52.625Z,6.53
2023-01-01T22:51:28.428Z,6.57
2023-01-01T22:53:56.962Z,6.63
2023-01-01T22:56:25.429Z,7.83
2023-01-01T22:58:57.228Z,7.60
2023-01-01T23:01:26.576Z,7.80
2023-01-01T23:03:55.170Z,7.37
2023-01-01T23:06:23.885Z,6.40
2023-01-01T23:08:54.734Z,7.67
2023-01-01T23:11:23.593Z,7.17
2023-01-01T23:14:10.899Z,7.07
2023-01-01T23:16:39.461Z,7.00
2023-01-01T23:19:07.999Z,6.50
2023-01-01T23:21:39.122Z,6.97
2023-01-01T23:24:10.761Z,7.07
2023-01-01T23:26:39.584Z,8.50
2023-01-01T23:29:09.455Z,7.77
2023-01-01T23:31:38.666Z,7.53
2023-01-01T23:34:07.178Z,7.37
2023-01-01T23:36:36.203Z,7.37
2023-01-01T23:39:04.738Z,7.77
2023-01-01T23:41:34.718Z,6.90
2023-01-01T23:44:03.277Z,7.00
2023-01-01T23:46:33.858Z,7.23
2023-01-01T23:49:03.651Z,7.00
2023-01-01T23:51:33.071Z,8.03
2023-01-01T23:54:01.610Z,7.40
2023-01-01T23:56:30.158Z,7.50
2023-01-01T23:59:00.198Z,6.93
